Time;durP1;ratioP1;P1;durP2;ratioP2;P2;SDS_P1;SDS_P2;PMS_P1;PMS_P2;Temp;Humidity;BMP_temperature;BMP_pressure;BME280_temperature;BME280_humidity;BME280_pressure;Samples;Min_cycle;Max_cycle;Signal;HPM_P1;HPM_P2
2022/07/01 00:01:19;;;;;;;;;;;25.30;95.50;;;;;;5074979;28;19912;-60
2022/07/01 00:03:51;;;;;;;;;;;25.40;95.50;;;;;;5075068;28;19917;-59
2022/07/01 00:06:17;;;;;;;;;;;25.30;95.50;;;;;;5075079;28;19977;-60
2022/07/01 00:08:42;;;;;;;;;;;25.30;95.50;;;;;;5075230;28;20180;-61
2022/07/01 00:11:08;;;;;;;;;;;25.30;95.40;;;;;;5074921;28;19979;-60
2022/07/01 00:13:33;;;;;;;;;;;25.30;95.40;;;;;;5074872;28;20014;-61
2022/07/01 00:15:59;;;;;;;;;;;25.30;95.40;;;;;;5074839;28;19908;-61
2022/07/01 00:18:24;;;;;;;;;;;25.30;95.40;;;;;;5074407;28;19909;-59
2022/07/01 00:20:50;;;;;;;;;;;25.30;95.40;;;;;;5074425;28;19908;-60
2022/07/01 00:23:16;;;;;;;;;;;25.30;95.40;;;;;;5074307;28;19938;-60
2022/07/01 00:25:42;;;;;;;;;;;25.30;95.40;;;;;;5074608;28;19920;-61
2022/07/01 00:28:08;;;;;;;;;;;25.30;95.40;;;;;;5074608;28;20283;-60
2022/07/01 00:30:33;;;;;;;;;;;25.30;95.40;;;;;;5074297;28;19915;-60
2022/07/01 00:32:59;;;;;;;;;;;25.30;95.40;;;;;;5074318;28;19952;-61
2022/07/01 00:35:25;;;;;;;;;;;25.30;95.40;;;;;;5074154;28;19913;-60
2022/07/01 00:37:50;;;;;;;;;;;25.30;95.40;;;;;;5074495;28;19909;-59
2022/07/01 00:40:16;;;;;;;;;;;25.30;95.40;;;;;;5074388;28;19944;-59
2022/07/01 00:42:42;;;;;;;;;;;25.30;95.40;;;;;;5073983;28;19934;-60
2022/07/01 00:45:09;;;;;;;;;;;25.30;95.40;;;;;;5074333;28;19923;-60
2022/07/01 00:47:35;;;;;;;;;;;25.30;95.40;;;;;;5074357;28;19913;-59
2022/07/01 00:50:00;;;;;;;;;;;25.30;95.40;;;;;;5073316;28;19969;-60
2022/07/01 00:52:26;;;;;;;;;;;25.30;95.40;;;;;;5074373;28;19934;-60
2022/07/01 00:54:53;;;;;;;;;;;25.30;95.40;;;;;;5074179;28;19909;-60
2022/07/01 00:57:18;;;;;;;;;;;25.30;95.40;;;;;;5074217;28;20360;-59
2022/07/01 00:59:44;;;;;;;;;;;25.30;95.40;;;;;;5073731;28;19909;-60
2022/07/01 01:02:09;;;;;;;;;;;25.30;95.40;;;;;;5073718;28;19912;-60
2022/07/01 01:04:35;;;;;;;;;;;25.30;95.40;;;;;;5073772;28;19913;-59
2022/07/01 01:07:02;;;;;;;;;;;25.30;95.40;;;;;;5074402;28;19956;-60
2022/07/01 01:09:29;;;;;;;;;;;25.30;95.40;;;;;;5074073;28;20259;-60
2022/07/01 01:11:54;;;;;;;;;;;25.30;95.40;;;;;;5073703;28;20003;-60
2022/07/01 01:14:21;;;;;;;;;;;25.30;95.40;;;;;;5073699;28;19955;-60
2022/07/01 01:16:46;;;;;;;;;;;25.30;95.40;;;;;;5074117;28;20347;-59
2022/07/01 01:19:12;;;;;;;;;;;25.30;95.40;;;;;;5074199;28;19999;-61
2022/07/01 01:21:37;;;;;;;;;;;25.30;95.40;;;;;;5073571;28;19916;-60
2022/07/01 01:24:03;;;;;;;;;;;25.30;95.40;;;;;;5073574;28;19912;-61
2022/07/01 01:26:29;;;;;;;;;;;25.30;95.40;;;;;;5073866;28;20026;-60
2022/07/01 01:28:55;;;;;;;;;;;25.30;95.40;;;;;;5073582;28;19908;-61
2022/07/01 01:31:32;;;;;;;;;;;25.30;95.40;;;;;;5073895;28;19909;-60
2022/07/01 01:33:57;;;;;;;;;;;25.30;95.40;;;;;;5073934;28;19915;-61
2022/07/01 01:36:23;;;;;;;;;;;25.30;95.40;;;;;;5073777;28;19924;-60
2022/07/01 01:38:49;;;;;;;;;;;25.30;95.40;;;;;;5073717;28;19938;-60
2022/07/01 01:41:14;;;;;;;;;;;25.30;95.40;;;;;;5072651;28;19908;-59
2022/07/01 01:43:39;;;;;;;;;;;25.30;95.40;;;;;;5073753;28;19974;-60
2022/07/01 01:46:05;;;;;;;;;;;25.30;95.40;;;;;;5073707;28;19909;-61
2022/07/01 01:48:31;;;;;;;;;;;25.30;95.40;;;;;;5073626;28;19912;-60
2022/07/01 01:50:56;;;;;;;;;;;25.30;95.40;;;;;;5055729;28;20397;-59
2022/07/01 01:53:22;;;;;;;;;;;25.30;95.40;;;;;;5073274;28;20240;-59
2022/07/01 01:55:48;;;;;;;;;;;25.30;95.40;;;;;;5073592;28;20031;-60
2022/07/01 01:58:13;;;;;;;;;;;25.30;95.40;;;;;;5055453;28;19920;-60
2022/07/01 02:00:39;;;;;;;;;;;25.30;95.40;;;;;;5073596;28;19912;-59
2022/07/01 02:03:04;;;;;;;;;;;25.30;95.40;;;;;;5076769;28;19965;-60
2022/07/01 02:05:30;;;;;;;;;;;25.30;95.40;;;;;;5077314;28;19913;-60
2022/07/01 02:07:56;;;;;;;;;;;25.30;95.60;;;;;;5076990;28;20347;-60
2022/07/01 02:10:21;;;;;;;;;;;25.30;95.40;;;;;;5076949;28;20363;-60
2022/07/01 02:12:47;;;;;;;;;;;25.20;95.40;;;;;;5076838;28;20378;-60
2022/07/01 02:15:12;;;;;;;;;;;25.30;95.40;;;;;;5077174;28;19908;-60
2022/07/01 02:17:38;;;;;;;;;;;25.30;95.40;;;;;;5077108;28;20013;-60
2022/07/01 02:20:04;;;;;;;;;;;25.30;95.40;;;;;;5076657;28;19912;-60
2022/07/01 02:22:29;;;;;;;;;;;25.30;95.40;;;;;;5076904;28;19912;-60
2022/07/01 02:24:55;;;;;;;;;;;25.30;95.40;;;;;;5077001;28;20008;-60
2022/07/01 02:27:20;;;;;;;;;;;25.30;95.40;;;;;;5076586;28;20006;-60
2022/07/01 02:29:46;;;;;;;;;;;25.30;95.40;;;;;;5076892;28;19916;-60
2022/07/01 02:32:12;;;;;;;;;;;25.30;95.40;;;;;;5076846;28;19908;-60
2022/07/01 02:34:37;;;;;;;;;;;25.30;95.40;;;;;;5076473;28;19940;-60
2022/07/01 02:37:03;;;;;;;;;;;25.30;95.40;;;;;;5076758;28;19916;-61
2022/07/01 02:39:28;;;;;;;;;;;25.30;95.40;;;;;;5077049;28;19913;-61
2022/07/01 02:44:38;;;;;;;;;;;25.30;95.40;;;;;;5076404;28;19936;-59
2022/07/01 02:47:03;;;;;;;;;;;25.20;95.40;;;;;;5076330;28;20340;-61
2022/07/01 02:49:29;;;;;;;;;;;25.30;95.40;;;;;;5076215;28;20042;-60
2022/07/01 02:51:54;;;;;;;;;;;25.20;95.40;;;;;;5076199;28;19908;-59
2022/07/01 02:54:20;;;;;;;;;;;25.30;95.40;;;;;;5076363;28;19909;-60
2022/07/01 02:56:45;;;;;;;;;;;25.30;95.40;;;;;;5058090;28;19924;-59
2022/07/01 02:59:11;;;;;;;;;;;25.30;95.40;;;;;;5076081;28;19909;-60
2022/07/01 03:01:36;;;;;;;;;;;25.20;95.40;;;;;;5076150;28;20007;-60
2022/07/01 03:04:01;;;;;;;;;;;25.30;95.40;;;;;;5075890;28;19913;-60
2022/07/01 03:06:27;;;;;;;;;;;25.20;95.40;;;;;;5075963;28;19909;-59
2022/07/01 03:08:53;;;;;;;;;;;25.30;95.40;;;;;;5076141;28;20358;-60
2022/07/01 03:11:18;;;;;;;;;;;25.20;95.40;;;;;;5076009;28;20393;-60
2022/07/01 03:13:44;;;;;;;;;;;25.30;95.40;;;;;;5057289;28;19908;-60
2022/07/01 03:16:10;;;;;;;;;;;25.20;95.40;;;;;;5074641;28;19913;-59
2022/07/01 03:18:35;;;;;;;;;;;25.20;95.40;;;;;;5075669;28;20314;-60
2022/07/01 03:21:00;;;;;;;;;;;25.30;95.40;;;;;;5075693;28;19916;-60
2022/07/01 03:23:26;;;;;;;;;;;25.30;95.40;;;;;;5057419;28;20038;-59
2022/07/01 03:25:52;;;;;;;;;;;25.30;95.40;;;;;;5075818;28;19912;-59
2022/07/01 03:28:17;;;;;;;;;;;25.20;95.40;;;;;;5075386;28;19954;-60
2022/07/01 03:30:43;;;;;;;;;;;25.30;95.40;;;;;;5075511;28;19953;-59
2022/07/01 03:33:08;;;;;;;;;;;25.30;95.40;;;;;;5075329;28;19932;-59
2022/07/01 03:35:39;;;;;;;;;;;25.30;95.40;;;;;;5075442;28;20016;-60
2022/07/01 03:38:04;;;;;;;;;;;25.30;95.40;;;;;;5075910;28;19909;-59
2022/07/01 03:40:33;;;;;;;;;;;25.20;95.40;;;;;;5075606;28;20240;-58
2022/07/01 03:42:59;;;;;;;;;;;25.20;95.40;;;;;;5073769;28;20445;-60
2022/07/01 03:45:24;;;;;;;;;;;25.20;95.40;;;;;;5074094;28;19917;-59
2022/07/01 03:47:50;;;;;;;;;;;25.20;95.40;;;;;;5075168;28;20342;-59
2022/07/01 03:50:16;;;;;;;;;;;25.20;95.40;;;;;;5075193;28;19908;-60
2022/07/01 03:52:42;;;;;;;;;;;25.20;95.40;;;;;;5075243;28;19908;-59
2022/07/01 03:55:11;;;;;;;;;;;25.20;95.40;;;;;;5074803;28;19913;-60
2022/07/01 03:57:36;;;;;;;;;;;25.20;95.40;;;;;;5075095;28;19921;-60
2022/07/01 04:00:02;;;;;;;;;;;25.20;95.40;;;;;;5074826;28;19915;-60
2022/07/01 04:02:27;;;;;;;;;;;25.20;95.40;;;;;;5057090;28;19913;-60
2022/07/01 04:04:55;;;;;;;;;;;25.20;95.40;;;;;;5074897;28;20317;-59
2022/07/01 04:07:20;;;;;;;;;;;25.20;95.40;;;;;;5074872;28;19908;-60
2022/07/01 04:09:46;;;;;;;;;;;25.20;95.40;;;;;;5074907;28;19909;-59
2022/07/01 04:12:12;;;;;;;;;;;25.20;95.40;;;;;;5075066;28;19909;-59
2022/07/01 04:14:38;;;;;;;;;;;25.20;95.40;;;;;;5074531;28;19909;-60
2022/07/01 04:17:03;;;;;;;;;;;25.20;95.40;;;;;;5074645;28;20359;-61
2022/07/01 04:19:29;;;;;;;;;;;25.20;95.40;;;;;;5074470;28;19913;-60
2022/07/01 04:24:39;;;;;;;;;;;25.20;95.40;;;;;;5073382;28;19923;-60
2022/07/01 04:27:04;;;;;;;;;;;25.20;95.40;;;;;;5074220;28;19908;-61
2022/07/01 04:29:30;;;;;;;;;;;25.20;95.40;;;;;;5056564;28;20370;-60
2022/07/01 04:31:56;;;;;;;;;;;25.20;95.40;;;;;;5074046;28;19908;-59
2022/07/01 04:34:22;;;;;;;;;;;25.20;95.40;;;;;;5073306;28;20259;-60
2022/07/01 04:36:47;;;;;;;;;;;25.20;95.40;;;;;;5074211;28;19914;-60
2022/07/01 04:39:13;;;;;;;;;;;25.20;95.40;;;;;;5074312;28;19915;-60
2022/07/01 04:44:22;;;;;;;;;;;25.20;95.40;;;;;;5073810;28;19962;-60
2022/07/01 04:46:48;;;;;;;;;;;25.20;95.40;;;;;;5073718;28;19995;-60
2022/07/01 04:49:13;;;;;;;;;;;25.10;95.40;;;;;;5073889;28;20013;-61
2022/07/01 04:51:39;;;;;;;;;;;25.20;95.50;;;;;;5074165;28;19912;-61
2022/07/01 04:54:05;;;;;;;;;;;25.10;95.40;;;;;;5074081;28;19909;-60
2022/07/01 04:56:32;;;;;;;;;;;25.20;95.40;;;;;;5073920;28;19921;-61
2022/07/01 04:58:58;;;;;;;;;;;25.20;95.50;;;;;;5073696;28;19908;-60
2022/07/01 05:01:23;;;;;;;;;;;25.20;95.40;;;;;;5073448;28;19932;-60
2022/07/01 05:03:49;;;;;;;;;;;25.10;95.40;;;;;;5073911;28;19974;-59
2022/07/01 05:06:14;;;;;;;;;;;25.20;95.50;;;;;;5073416;28;19908;-60
2022/07/01 05:08:40;;;;;;;;;;;25.20;95.40;;;;;;5073850;28;19951;-59
2022/07/01 05:11:06;;;;;;;;;;;25.10;95.40;;;;;;5074030;28;19908;-60
2022/07/01 05:13:33;;;;;;;;;;;25.20;95.50;;;;;;5072589;28;19908;-61
2022/07/01 05:15:58;;;;;;;;;;;25.10;95.50;;;;;;5073548;28;19995;-60
2022/07/01 05:23:52;;;;;;;;;;;25.20;95.50;;;;;;5073569;28;19924;-60
2022/07/01 05:26:18;;;;;;;;;;;25.20;95.50;;;;;;5073484;28;19908;-59
2022/07/01 05:28:44;;;;;;;;;;;25.10;95.50;;;;;;5073564;28;19908;-59
2022/07/01 05:31:10;;;;;;;;;;;25.10;95.50;;;;;;5073681;28;19935;-60
2022/07/01 05:33:35;;;;;;;;;;;25.10;95.50;;;;;;5073300;28;20359;-60
2022/07/01 05:36:01;;;;;;;;;;;25.10;95.50;;;;;;5073873;28;19916;-61
2022/07/01 05:38:27;;;;;;;;;;;25.10;95.50;;;;;;5059320;28;20347;-61
2022/07/01 05:40:53;;;;;;;;;;;25.10;95.50;;;;;;5077252;28;20006;-60
2022/07/01 05:43:19;;;;;;;;;;;25.10;95.50;;;;;;5077299;28;19913;-59
2022/07/01 05:45:45;;;;;;;;;;;25.10;95.50;;;;;;5077331;28;19920;-60
2022/07/01 05:48:10;;;;;;;;;;;25.10;95.60;;;;;;5077423;28;19909;-60
2022/07/01 05:50:36;;;;;;;;;;;25.10;95.50;;;;;;5076950;28;20388;-59
2022/07/01 05:53:01;;;;;;;;;;;25.10;95.60;;;;;;5077273;28;19908;-60
2022/07/01 05:55:26;;;;;;;;;;;25.10;95.50;;;;;;5076866;28;19930;-60
2022/07/01 05:57:52;;;;;;;;;;;25.10;95.60;;;;;;5076616;28;19927;-60
2022/07/01 06:00:18;;;;;;;;;;;25.10;95.60;;;;;;5076816;28;19961;-60
2022/07/01 06:02:43;;;;;;;;;;;25.10;95.60;;;;;;5076863;28;19962;-60
2022/07/01 06:05:09;;;;;;;;;;;25.10;95.60;;;;;;5076962;28;19916;-59
2022/07/01 06:07:34;;;;;;;;;;;25.10;95.60;;;;;;5076301;28;19912;-60
2022/07/01 06:10:00;;;;;;;;;;;25.10;95.60;;;;;;5076377;28;20416;-59
2022/07/01 06:12:25;;;;;;;;;;;25.10;95.60;;;;;;5076804;28;20017;-58
2022/07/01 06:14:51;;;;;;;;;;;25.10;95.60;;;;;;5058765;28;19959;-60
2022/07/01 06:17:16;;;;;;;;;;;25.10;95.60;;;;;;5076469;28;19954;-60
2022/07/01 06:19:42;;;;;;;;;;;25.10;95.60;;;;;;5076525;28;19916;-60
2022/07/01 06:22:08;;;;;;;;;;;25.10;95.60;;;;;;5076406;28;19962;-60
2022/07/01 06:24:33;;;;;;;;;;;25.10;95.60;;;;;;5076540;28;20317;-59
2022/07/01 06:26:59;;;;;;;;;;;25.10;95.50;;;;;;5074845;28;20351;-59
2022/07/01 06:29:27;;;;;;;;;;;25.10;95.50;;;;;;5076391;28;19950;-60
2022/07/01 06:31:53;;;;;;;;;;;25.10;95.60;;;;;;5076411;28;19999;-60
2022/07/01 06:34:18;;;;;;;;;;;25.10;95.60;;;;;;5076379;28;19988;-59
2022/07/01 06:36:44;;;;;;;;;;;25.10;95.60;;;;;;5076427;28;19909;-59
2022/07/01 06:39:09;;;;;;;;;;;25.10;95.80;;;;;;5076427;28;19908;-60
2022/07/01 06:41:35;;;;;;;;;;;25.10;95.60;;;;;;5076161;28;19916;-60
2022/07/01 06:44:01;;;;;;;;;;;25.10;95.60;;;;;;5076229;28;19955;-60
2022/07/01 06:46:27;;;;;;;;;;;25.10;95.60;;;;;;5076460;28;20230;-59
2022/07/01 06:48:53;;;;;;;;;;;25.10;95.60;;;;;;5074653;28;19915;-59
2022/07/01 06:51:18;;;;;;;;;;;25.10;95.60;;;;;;5076216;28;20021;-59
2022/07/01 06:53:46;;;;;;;;;;;25.10;95.60;;;;;;5075916;28;19948;-60
2022/07/01 06:56:12;;;;;;;;;;;25.10;95.60;;;;;;5075849;28;19919;-60
2022/07/01 06:58:37;;;;;;;;;;;25.10;95.60;;;;;;5075720;28;19908;-60
2022/07/01 07:01:03;;;;;;;;;;;25.10;95.60;;;;;;5075894;28;19915;-60
2022/07/01 07:03:29;;;;;;;;;;;25.10;95.60;;;;;;5075855;28;19917;-60
2022/07/01 07:05:54;;;;;;;;;;;25.10;95.60;;;;;;5075841;28;19912;-60
2022/07/01 07:08:20;;;;;;;;;;;25.10;95.60;;;;;;5075555;28;19914;-59
2022/07/01 07:10:45;;;;;;;;;;;25.10;95.60;;;;;;5075889;28;19936;-61
2022/07/01 07:13:11;;;;;;;;;;;25.10;95.60;;;;;;5075637;28;20240;-61
2022/07/01 07:15:41;;;;;;;;;;;25.10;95.60;;;;;;5075613;28;19923;-60
2022/07/01 07:18:07;;;;;;;;;;;25.10;95.60;;;;;;5075676;28;19908;-60
2022/07/01 07:20:33;;;;;;;;;;;25.10;95.60;;;;;;5057765;28;20003;-60
2022/07/01 07:22:59;;;;;;;;;;;25.10;95.60;;;;;;5075581;28;19978;-61
2022/07/01 07:25:24;;;;;;;;;;;25.10;95.60;;;;;;5075129;28;19955;-60
2022/07/01 07:27:50;;;;;;;;;;;25.10;95.60;;;;;;5074150;28;20418;-60
2022/07/01 07:30:16;;;;;;;;;;;25.10;95.60;;;;;;5075743;28;19998;-59
2022/07/01 07:32:41;;;;;;;;;;;25.10;95.60;;;;;;5075451;28;19915;-59
2022/07/01 07:35:07;;;;;;;;;;;25.10;95.60;;;;;;5074966;28;19913;-60
2022/07/01 07:37:33;;;;;;;;;;;25.10;95.60;;;;;;5074608;28;19908;-60
2022/07/01 07:39:59;;;;;;;;;;;25.10;95.60;;;;;;5075347;28;19908;-60
2022/07/01 07:42:25;;;;;;;;;;;25.10;95.60;;;;;;5075076;28;20007;-59
2022/07/01 07:44:50;;;;;;;;;;;25.10;95.60;;;;;;5074844;28;19959;-59
2022/07/01 07:47:16;;;;;;;;;;;25.10;95.70;;;;;;5075030;28;19909;-61
2022/07/01 07:49:41;;;;;;;;;;;25.00;95.60;;;;;;5075006;28;20336;-59
2022/07/01 07:52:07;;;;;;;;;;;25.10;95.60;;;;;;5074847;28;19981;-59
2022/07/01 07:54:32;;;;;;;;;;;25.10;95.60;;;;;;5075137;28;20019;-60
2022/07/01 07:56:57;;;;;;;;;;;25.10;95.60;;;;;;5074781;28;20327;-59
2022/07/01 07:59:23;;;;;;;;;;;25.00;95.60;;;;;;5074517;28;19909;-60
2022/07/01 08:01:48;;;;;;;;;;;25.10;95.60;;;;;;5074833;28;19921;-61
2022/07/01 08:04:16;;;;;;;;;;;25.00;95.60;;;;;;5073718;28;20144;-59
2022/07/01 08:06:41;;;;;;;;;;;25.00;95.60;;;;;;5074569;28;19944;-59
2022/07/01 08:09:06;;;;;;;;;;;25.10;95.60;;;;;;5074465;28;19912;-59
2022/07/01 08:11:32;;;;;;;;;;;25.10;95.60;;;;;;5074695;28;19908;-60
2022/07/01 08:13:58;;;;;;;;;;;25.10;95.60;;;;;;5074167;28;20313;-60
2022/07/01 08:16:24;;;;;;;;;;;25.10;95.60;;;;;;5074575;28;19909;-60
2022/07/01 08:18:49;;;;;;;;;;;25.10;95.60;;;;;;5073986;28;19918;-60
2022/07/01 08:21:15;;;;;;;;;;;25.00;95.60;;;;;;5074318;28;20252;-60
2022/07/01 08:23:40;;;;;;;;;;;25.10;95.60;;;;;;5074084;28;20007;-60
2022/07/01 08:26:06;;;;;;;;;;;25.00;95.60;;;;;;5074270;28;19958;-61
2022/07/01 08:28:31;;;;;;;;;;;25.10;95.60;;;;;;5073145;28;19915;-60
2022/07/01 08:30:56;;;;;;;;;;;25.10;95.60;;;;;;5074324;28;20348;-60
2022/07/01 08:33:22;;;;;;;;;;;25.10;95.60;;;;;;5074216;28;19999;-59
2022/07/01 08:35:47;;;;;;;;;;;25.00;95.50;;;;;;5074235;28;19959;-59
2022/07/01 08:38:13;;;;;;;;;;;25.00;95.50;;;;;;5074475;28;19984;-60
2022/07/01 08:40:39;;;;;;;;;;;25.00;95.50;;;;;;5073747;28;19981;-59
2022/07/01 08:43:06;;;;;;;;;;;25.00;95.50;;;;;;5073757;28;19919;-60
2022/07/01 08:45:35;;;;;;;;;;;25.00;95.50;;;;;;5073888;28;19999;-60
2022/07/01 08:48:01;;;;;;;;;;;25.00;95.50;;;;;;5073733;28;19908;-61
2022/07/01 08:50:28;;;;;;;;;;;25.00;95.50;;;;;;5073979;28;20337;-59
2022/07/01 08:52:53;;;;;;;;;;;25.00;95.40;;;;;;5073638;28;20432;-60
2022/07/01 08:55:20;;;;;;;;;;;25.00;95.40;;;;;;5072615;28;19912;-60
2022/07/01 08:57:45;;;;;;;;;;;24.90;95.50;;;;;;5074149;28;19920;-61
2022/07/01 09:00:11;;;;;;;;;;;24.90;95.50;;;;;;5074007;28;19965;-59
2022/07/01 09:02:55;;;;;;;;;;;25.00;95.50;;;;;;5072292;28;19956;-60
2022/07/01 09:05:21;;;;;;;;;;;25.00;95.50;;;;;;5073664;28;19912;-60
2022/07/01 09:07:47;;;;;;;;;;;25.00;95.50;;;;;;5073563;28;19916;-60
2022/07/01 09:10:14;;;;;;;;;;;25.00;95.60;;;;;;5073484;28;19908;-60
2022/07/01 09:12:42;;;;;;;;;;;25.00;95.50;;;;;;5071857;28;19912;-60
2022/07/01 09:15:21;;;;;;;;;;;24.90;95.50;;;;;;5073737;28;19921;-61
2022/07/01 09:17:47;;;;;;;;;;;25.00;95.50;;;;;;5073790;28;19909;-60
2022/07/01 09:20:26;;;;;;;;;;;24.90;95.50;;;;;;5055643;28;20002;-61
2022/07/01 09:23:05;;;;;;;;;;;24.90;95.50;;;;;;5073765;28;19913;-61
2022/07/01 09:25:44;;;;;;;;;;;24.90;95.50;;;;;;5055626;28;20372;-61
2022/07/01 09:28:09;;;;;;;;;;;24.90;95.50;;;;;;5073567;28;19913;-61
2022/07/01 09:30:35;;;;;;;;;;;24.90;95.50;;;;;;5073265;28;19908;-61
2022/07/01 09:33:08;;;;;;;;;;;24.90;95.50;;;;;;5073021;28;19909;-61
2022/07/01 09:35:34;;;;;;;;;;;24.90;95.50;;;;;;5073353;28;19908;-60
2022/07/01 09:37:59;;;;;;;;;;;24.90;95.50;;;;;;5073489;28;19919;-59
2022/07/01 09:40:25;;;;;;;;;;;24.90;95.50;;;;;;5073529;28;19940;-61
2022/07/01 09:42:50;;;;;;;;;;;24.90;95.50;;;;;;5073072;28;19913;-60
2022/07/01 09:45:16;;;;;;;;;;;24.90;95.50;;;;;;5073004;28;19935;-60
2022/07/01 09:47:44;;;;;;;;;;;24.90;95.50;;;;;;5055565;28;19908;-61
2022/07/01 09:50:10;;;;;;;;;;;24.90;95.50;;;;;;5072094;28;20003;-61
2022/07/01 09:52:37;;;;;;;;;;;24.90;95.50;;;;;;5072081;28;19944;-59
2022/07/01 09:55:03;;;;;;;;;;;24.90;95.50;;;;;;5073640;28;19919;-59
2022/07/01 09:57:29;;;;;;;;;;;24.90;95.50;;;;;;5073253;28;19981;-60
2022/07/01 09:59:55;;;;;;;;;;;24.90;95.50;;;;;;5073218;28;19912;-61
2022/07/01 10:02:21;;;;;;;;;;;24.90;95.50;;;;;;5073044;28;19913;-61
2022/07/01 10:04:52;;;;;;;;;;;24.90;95.60;;;;;;5073437;28;19912;-61
2022/07/01 10:07:28;;;;;;;;;;;24.90;95.50;;;;;;5072956;28;19908;-60
2022/07/01 10:09:59;;;;;;;;;;;24.90;95.50;;;;;;5073177;28;19908;-61
2022/07/01 10:12:25;;;;;;;;;;;24.90;95.50;;;;;;5073148;28;20007;-61
2022/07/01 10:14:51;;;;;;;;;;;24.90;95.50;;;;;;5072897;28;19952;-62
2022/07/01 10:17:26;;;;;;;;;;;24.90;95.50;;;;;;5072897;28;19909;-61
2022/07/01 10:19:55;;;;;;;;;;;24.90;95.50;;;;;;5072997;28;19909;-61
2022/07/01 10:22:25;;;;;;;;;;;24.90;95.60;;;;;;5073431;28;19913;-61
2022/07/01 10:24:51;;;;;;;;;;;24.90;95.60;;;;;;5076181;28;19935;-61
2022/07/01 10:27:20;;;;;;;;;;;24.90;95.60;;;;;;5076349;28;20359;-61
2022/07/01 10:29:46;;;;;;;;;;;24.90;95.60;;;;;;5076190;28;19947;-61
2022/07/01 10:32:20;;;;;;;;;;;24.80;95.60;;;;;;5076191;28;20417;-61
2022/07/01 10:34:46;;;;;;;;;;;24.90;95.60;;;;;;5076207;28;19909;-61
2022/07/01 10:37:12;;;;;;;;;;;24.80;95.60;;;;;;5075924;28;19908;-62
2022/07/01 10:40:00;;;;;;;;;;;24.80;95.60;;;;;;5076204;28;19944;-60
2022/07/01 10:42:28;;;;;;;;;;;24.90;95.60;;;;;;5076007;28;19912;-61
2022/07/01 10:45:01;;;;;;;;;;;24.90;95.60;;;;;;5076377;28;19916;-61
2022/07/01 10:47:26;;;;;;;;;;;24.90;95.60;;;;;;5074770;28;19908;-61
2022/07/01 10:49:54;;;;;;;;;;;24.90;95.60;;;;;;5075934;28;20382;-61
2022/07/01 10:52:19;;;;;;;;;;;24.90;95.60;;;;;;5075825;28;19916;-61
2022/07/01 10:54:47;;;;;;;;;;;24.80;95.60;;;;;;5075896;28;20271;-62
2022/07/01 10:57:19;;;;;;;;;;;24.90;95.60;;;;;;5075316;28;20296;-62
2022/07/01 10:59:50;;;;;;;;;;;24.80;95.60;;;;;;5075828;28;19980;-61
2022/07/01 11:02:20;;;;;;;;;;;24.80;95.60;;;;;;5075616;28;19912;-62
2022/07/01 11:04:46;;;;;;;;;;;24.80;95.60;;;;;;5075302;28;19917;-61
2022/07/01 11:07:11;;;;;;;;;;;24.80;95.60;;;;;;5075734;28;19916;-61
2022/07/01 11:09:37;;;;;;;;;;;24.90;95.60;;;;;;5075608;28;19908;-59
2022/07/01 11:12:04;;;;;;;;;;;24.80;95.60;;;;;;5075837;28;20117;-60
2022/07/01 11:14:33;;;;;;;;;;;24.80;95.60;;;;;;5075370;28;19997;-60
2022/07/01 11:16:59;;;;;;;;;;;24.80;95.60;;;;;;5075546;28;19912;-60
2022/07/01 11:19:24;;;;;;;;;;;24.80;95.50;;;;;;5074931;28;19915;-61
2022/07/01 11:21:50;;;;;;;;;;;24.80;95.60;;;;;;5075149;28;19924;-61
2022/07/01 11:24:22;;;;;;;;;;;24.80;95.60;;;;;;5075659;28;19912;-60
2022/07/01 11:26:48;;;;;;;;;;;24.80;95.60;;;;;;5075149;28;19908;-61
2022/07/01 11:29:14;;;;;;;;;;;24.80;95.60;;;;;;5075258;28;19978;-60
2022/07/01 11:31:40;;;;;;;;;;;24.80;95.60;;;;;;5075565;28;19912;-61
2022/07/01 11:34:06;;;;;;;;;;;24.90;95.60;;;;;;5057059;28;19909;-59
2022/07/01 11:39:22;;;;;;;;;;;24.80;95.60;;;;;;5075213;28;19999;-61
2022/07/01 11:41:51;;;;;;;;;;;24.80;95.60;;;;;;5074754;28;19913;-60
2022/07/01 11:44:37;;;;;;;;;;;24.80;95.60;;;;;;5075006;28;20374;-59
2022/07/01 11:47:07;;;;;;;;;;;24.80;95.60;;;;;;5063787;28;20271;-59
2022/07/01 11:49:33;;;;;;;;;;;24.80;95.60;;;;;;5075180;28;19908;-59
2022/07/01 11:51:59;;;;;;;;;;;24.80;95.60;;;;;;5074714;28;20371;-60
2022/07/01 11:54:25;;;;;;;;;;;24.80;95.60;;;;;;5056729;28;19908;-62
2022/07/01 11:56:51;;;;;;;;;;;24.80;95.60;;;;;;5074728;28;19921;-60
2022/07/01 11:59:16;;;;;;;;;;;24.80;95.60;;;;;;5074683;28;20270;-61
2022/07/01 12:01:50;;;;;;;;;;;24.80;95.60;;;;;;5073152;28;20370;-61
2022/07/01 12:04:16;;;;;;;;;;;24.80;95.60;;;;;;5075005;28;20020;-61
2022/07/01 12:06:42;;;;;;;;;;;24.80;95.60;;;;;;5074734;28;19909;-60
2022/07/01 12:09:13;;;;;;;;;;;24.80;95.60;;;;;;5074253;28;20255;-61
2022/07/01 12:11:38;;;;;;;;;;;24.80;95.60;;;;;;5074676;28;19993;-60
2022/07/01 12:14:04;;;;;;;;;;;24.80;95.60;;;;;;5074068;28;19913;-60
2022/07/01 12:16:37;;;;;;;;;;;24.80;95.60;;;;;;5074439;28;19912;-60
2022/07/01 12:19:02;;;;;;;;;;;24.80;95.60;;;;;;5074060;28;19914;-59
2022/07/01 12:21:28;;;;;;;;;;;24.70;95.60;;;;;;5074513;28;19908;-61
2022/07/01 12:24:13;;;;;;;;;;;24.80;95.60;;;;;;5074557;28;20020;-60
2022/07/01 12:26:48;;;;;;;;;;;24.80;95.60;;;;;;5074156;28;20019;-61
2022/07/01 12:29:14;;;;;;;;;;;24.80;95.60;;;;;;5073830;28;19995;-60
2022/07/01 12:31:40;;;;;;;;;;;24.80;95.60;;;;;;5074005;28;19959;-61
2022/07/01 12:34:05;;;;;;;;;;;24.80;95.60;;;;;;5074194;28;19930;-60
2022/07/01 12:36:31;;;;;;;;;;;24.70;95.60;;;;;;5073971;28;20407;-60
2022/07/01 12:39:03;;;;;;;;;;;24.80;95.60;;;;;;5073248;28;19978;-61
2022/07/01 12:41:33;;;;;;;;;;;24.80;95.60;;;;;;5073815;28;19913;-60
2022/07/01 12:43:59;;;;;;;;;;;24.80;95.60;;;;;;5072542;28;19913;-61
2022/07/01 12:46:29;;;;;;;;;;;24.80;95.60;;;;;;5072908;28;20279;-61
2022/07/01 12:48:54;;;;;;;;;;;24.80;95.60;;;;;;5074255;28;19908;-60
2022/07/01 12:51:20;;;;;;;;;;;24.80;95.60;;;;;;5073944;28;19930;-60
2022/07/01 12:53:45;;;;;;;;;;;24.70;95.60;;;;;;5055620;28;20415;-60
2022/07/01 12:56:22;;;;;;;;;;;24.80;95.50;;;;;;5073536;28;19908;-61
2022/07/01 12:58:48;;;;;;;;;;;24.80;95.60;;;;;;5073721;28;19969;-60
2022/07/01 13:01:13;;;;;;;;;;;24.70;95.60;;;;;;5073250;28;20435;-61
2022/07/01 13:03:39;;;;;;;;;;;24.70;95.60;;;;;;5073937;28;19924;-61
2022/07/01 13:06:04;;;;;;;;;;;24.70;95.60;;;;;;5073836;28;19912;-60
2022/07/01 13:08:30;;;;;;;;;;;24.70;95.60;;;;;;5073606;28;20012;-61
2022/07/01 13:10:55;;;;;;;;;;;24.70;95.60;;;;;;5073198;28;19916;-60
2022/07/01 13:13:21;;;;;;;;;;;24.70;95.60;;;;;;5055287;28;19908;-61
2022/07/01 13:15:47;;;;;;;;;;;24.70;95.60;;;;;;5073164;28;20386;-59
2022/07/01 13:18:16;;;;;;;;;;;24.70;95.60;;;;;;5073297;28;19962;-60
2022/07/01 13:20:42;;;;;;;;;;;24.70;95.60;;;;;;5073021;28;20004;-60
2022/07/01 13:23:08;;;;;;;;;;;24.70;95.60;;;;;;5073058;28;20366;-58
2022/07/01 13:25:33;;;;;;;;;;;24.70;95.60;;;;;;5073310;28;19916;-59
2022/07/01 13:27:59;;;;;;;;;;;24.70;95.60;;;;;;5073497;28;19912;-60
2022/07/01 13:30:24;;;;;;;;;;;24.70;95.60;;;;;;5072965;28;20231;-59
2022/07/01 13:32:53;;;;;;;;;;;24.70;95.50;;;;;;5073321;28;19908;-60
2022/07/01 13:35:19;;;;;;;;;;;24.70;95.50;;;;;;5073199;28;19909;-59
2022/07/01 13:37:45;;;;;;;;;;;24.70;95.60;;;;;;5073582;28;19919;-61
2022/07/01 13:40:11;;;;;;;;;;;24.70;95.60;;;;;;5073233;28;19908;-60
2022/07/01 13:42:37;;;;;;;;;;;24.70;95.60;;;;;;5073325;28;19919;-60
2022/07/01 13:45:03;;;;;;;;;;;24.70;95.60;;;;;;5073115;28;19912;-62
2022/07/01 13:47:29;;;;;;;;;;;24.70;95.50;;;;;;5073628;28;19930;-61
2022/07/01 13:49:55;;;;;;;;;;;24.70;95.60;;;;;;5073430;28;19951;-61
2022/07/01 13:52:21;;;;;;;;;;;24.70;95.60;;;;;;5073833;28;20005;-62
2022/07/01 13:54:46;;;;;;;;;;;24.70;95.60;;;;;;5073327;28;19931;-60
2022/07/01 13:57:12;;;;;;;;;;;24.70;95.80;;;;;;5073746;28;19920;-61
2022/07/01 13:59:37;;;;;;;;;;;24.70;95.50;;;;;;5077038;28;19936;-61
2022/07/01 14:02:05;;;;;;;;;;;24.70;95.50;;;;;;5076684;28;19917;-61
2022/07/01 14:04:30;;;;;;;;;;;24.70;95.50;;;;;;5076963;28;19919;-61
2022/07/01 14:06:56;;;;;;;;;;;24.70;95.50;;;;;;5075793;28;20348;-61
2022/07/01 14:09:21;;;;;;;;;;;24.70;95.60;;;;;;5076733;28;19908;-61
2022/07/01 14:11:47;;;;;;;;;;;24.70;95.60;;;;;;5077064;28;19909;-58
2022/07/01 14:14:13;;;;;;;;;;;24.70;95.50;;;;;;5076926;28;20011;-60
2022/07/01 14:16:38;;;;;;;;;;;24.70;95.50;;;;;;5077100;28;19940;-60
2022/07/01 14:19:04;;;;;;;;;;;24.70;95.50;;;;;;5076873;28;19916;-61
2022/07/01 14:21:29;;;;;;;;;;;24.70;95.50;;;;;;5076521;28;19917;-61
2022/07/01 14:23:55;;;;;;;;;;;24.70;95.50;;;;;;5076250;28;19969;-61
2022/07/01 14:26:20;;;;;;;;;;;24.70;95.50;;;;;;5076615;28;19922;-61
2022/07/01 14:28:46;;;;;;;;;;;24.70;95.50;;;;;;5076440;28;19930;-62